Kinsey, Alabama
Current Conditions -  °F | °C
As of 10:53 AM on Thursday 27 Nov 2014 (Local Time) from KDHN Reporting Station
Clear Clear  
Wind Chill: 55°   Ceiling: Unl
Heat Index: 55°   Visibility: 10mi
Dew Point: 32°   Wind: 15mph
Humidity: 42%   Direction: 310°NW
Pressure: 30.36"   Gusts: 23mph
Location:  31.271°N, 85.3923°W
Report Text: KDHN 271653Z 31013G20KT 10SM CLR 13/00 A3036 RMK AO2 SLP278 T01280000
Loading
Personal Weather Stations






























Interactive Weather Map New forecast layout! Learn more

10-Day Weather Forecast

Advertisements
Track Severe Weather on mobile